Igaci, Brazil
Current Conditions -  °F | °C
As of 10:00 PM on Tuesday 27 Jan 2015 (Local Time) from SBMO Reporting Station
Scattered Clouds Scattered Clouds  
Wind Chill: 73°   Ceiling: Unl
Heat Index: 73°   Visibility: 6mi
Dew Point: 68°   Wind: 2mph
Humidity: 83%   Direction: 50°NE
Pressure: 29.97"   Gusts: NA
Location:  9.54°S, 36.63°W
Report Text: SBMO 280100Z 05002KT 9999 SCT020 23/20 Q1015
Loading
Personal Weather Stations






























Interactive Weather Map New forecast layout! Learn more

10-Day Weather Forecast

Advertisements
Track Severe Weather on mobile